createdAt,value
2018-08-28T00:01:20.228Z,76.30
2018-08-28T00:03:48.813Z,76.20
2018-08-28T00:06:17.252Z,76.30
2018-08-28T00:08:45.644Z,76.60
2018-08-28T00:11:14.149Z,76.70
2018-08-28T00:13:42.649Z,76.80
2018-08-28T00:16:11.216Z,76.80
2018-08-28T00:18:40.553Z,76.80
2018-08-28T00:21:09.036Z,76.80
2018-08-28T00:23:37.467Z,77.30
2018-08-28T00:26:05.925Z,78.20
2018-08-28T00:28:34.340Z,78.20
2018-08-28T00:31:02.864Z,77.80
2018-08-28T00:33:31.281Z,77.80
2018-08-28T00:35:59.770Z,77.70
2018-08-28T00:38:28.200Z,77.70
2018-08-28T00:40:56.653Z,77.50
2018-08-28T00:43:25.093Z,77.80
2018-08-28T00:45:53.594Z,77.60
2018-08-28T00:48:22.008Z,77.70
2018-08-28T00:50:50.474Z,78.00
2018-08-28T00:53:18.889Z,77.80
2018-08-28T00:55:47.333Z,78.40
2018-08-28T00:58:15.815Z,78.50
2018-08-28T01:00:44.269Z,78.60
2018-08-28T01:03:12.707Z,78.70
2018-08-28T01:05:41.161Z,78.70
2018-08-28T01:08:09.602Z,78.80
2018-08-28T01:10:38.063Z,78.90
2018-08-28T01:13:06.473Z,79.10
2018-08-28T01:15:34.977Z,79.20
2018-08-28T01:18:03.405Z,79.20
2018-08-28T01:20:31.869Z,79.20
2018-08-28T01:23:00.320Z,79.40
2018-08-28T01:25:28.801Z,79.40
2018-08-28T01:27:57.284Z,79.50
2018-08-28T01:30:32.879Z,79.50
2018-08-28T01:33:02.852Z,79.80
2018-08-28T01:35:31.305Z,79.80
2018-08-28T01:37:59.878Z,79.80
2018-08-28T01:40:28.805Z,79.90
2018-08-28T01:42:57.737Z,79.90
2018-08-28T01:45:26.221Z,80.10
2018-08-28T01:47:54.732Z,80.20
2018-08-28T01:50:23.216Z,80.00
2018-08-28T01:52:51.669Z,79.80
2018-08-28T01:55:20.098Z,79.80
2018-08-28T01:57:48.587Z,79.90
2018-08-28T02:00:17.006Z,79.70
2018-08-28T02:02:45.594Z,79.60
2018-08-28T02:05:14.038Z,79.70
2018-08-28T02:07:42.489Z,79.70
2018-08-28T02:10:10.942Z,79.80
2018-08-28T02:12:39.405Z,80.00
2018-08-28T02:15:07.927Z,79.90
2018-08-28T02:17:36.399Z,80.00
2018-08-28T02:20:05.029Z,80.00
2018-08-28T02:22:33.481Z,80.30
2018-08-28T02:25:01.918Z,80.50
2018-08-28T02:27:30.357Z,80.90
2018-08-28T02:29:58.810Z,80.90
2018-08-28T02:32:27.267Z,81.20
2018-08-28T02:34:55.924Z,81.30
2018-08-28T02:37:24.386Z,81.30
2018-08-28T02:39:53.057Z,81.40
2018-08-28T02:42:21.531Z,81.00
2018-08-28T02:44:50.117Z,81.10
2018-08-28T02:47:18.573Z,81.10
2018-08-28T02:49:47.013Z,81.20
2018-08-28T02:52:15.457Z,81.30
2018-08-28T02:54:43.928Z,81.40
2018-08-28T02:57:12.413Z,81.40
2018-08-28T02:59:40.907Z,81.20
2018-08-28T03:02:09.444Z,81.40
2018-08-28T03:04:37.869Z,81.20
2018-08-28T03:07:06.358Z,81.20
2018-08-28T03:09:34.814Z,81.30
2018-08-28T03:12:03.278Z,81.30
2018-08-28T03:14:31.853Z,81.30
2018-08-28T03:17:00.301Z,81.40
2018-08-28T03:19:28.781Z,81.70
2018-08-28T03:21:57.333Z,81.70
2018-08-28T03:24:25.978Z,81.80
2018-08-28T03:26:54.434Z,81.70
2018-08-28T03:29:23.059Z,81.60
2018-08-28T03:31:51.526Z,81.60
2018-08-28T03:34:19.981Z,81.60
2018-08-28T03:36:48.406Z,81.70
2018-08-28T03:39:16.875Z,81.90
2018-08-28T03:41:45.318Z,82.00
2018-08-28T03:44:13.760Z,82.00
2018-08-28T03:46:42.212Z,82.40
2018-08-28T03:49:10.661Z,82.40
2018-08-28T03:51:39.096Z,82.50
2018-08-28T03:54:07.590Z,82.70
2018-08-28T03:56:36.034Z,83.20
2018-08-28T03:59:04.693Z,83.30
2018-08-28T04:01:33.101Z,83.20
2018-08-28T04:04:01.550Z,83.30
2018-08-28T04:06:30.005Z,83.30
2018-08-28T04:08:58.480Z,83.40
2018-08-28T04:11:27.062Z,83.70
2018-08-28T04:13:55.511Z,83.70
2018-08-28T04:16:23.944Z,83.70
2018-08-28T04:18:52.408Z,83.90
2018-08-28T04:21:20.965Z,84.00
2018-08-28T04:23:49.452Z,84.20
2018-08-28T04:26:18.060Z,84.20
2018-08-28T04:28:46.578Z,84.10
2018-08-28T04:31:14.983Z,84.10
2018-08-28T04:33:43.428Z,84.10
2018-08-28T04:36:11.853Z,84.20
2018-08-28T04:38:40.336Z,84.50
2018-08-28T04:41:08.762Z,84.40
2018-08-28T04:43:37.234Z,84.30
2018-08-28T04:46:05.682Z,84.20
2018-08-28T04:48:34.147Z,84.00
2018-08-28T04:51:02.561Z,83.70
2018-08-28T04:53:31.021Z,83.80
2018-08-28T04:55:59.497Z,83.80
2018-08-28T04:58:27.975Z,83.40
2018-08-28T05:00:56.426Z,83.50
2018-08-28T05:03:24.872Z,83.70
2018-08-28T05:05:53.293Z,83.80
2018-08-28T05:08:21.732Z,83.90
2018-08-28T05:10:50.193Z,84.20
2018-08-28T05:13:18.661Z,84.20
2018-08-28T05:15:47.169Z,84.10
2018-08-28T05:18:15.628Z,84.00
2018-08-28T05:20:44.108Z,83.90
2018-08-28T05:23:12.621Z,83.90
2018-08-28T05:25:41.097Z,83.00
2018-08-28T05:28:09.543Z,82.70
2018-08-28T05:30:38.093Z,82.70
2018-08-28T05:33:06.520Z,82.50
2018-08-28T05:35:34.970Z,82.70
2018-08-28T05:38:04.005Z,82.80
2018-08-28T05:40:32.468Z,82.60
2018-08-28T05:43:00.892Z,82.30
2018-08-28T05:45:29.320Z,82.30
2018-08-28T05:47:57.718Z,82.10
2018-08-28T05:50:26.200Z,81.50
2018-08-28T05:52:54.632Z,81.10
2018-08-28T05:55:23.093Z,81.10
2018-08-28T05:57:51.541Z,80.80
2018-08-28T06:00:20.078Z,80.90
2018-08-28T06:02:48.491Z,80.90
2018-08-28T06:05:16.952Z,80.90
2018-08-28T06:07:45.393Z,80.90
2018-08-28T06:10:13.850Z,80.80
2018-08-28T06:12:42.256Z,80.50
2018-08-28T06:15:10.766Z,79.80
2018-08-28T06:17:39.221Z,79.00
2018-08-28T06:20:07.937Z,78.80
2018-08-28T06:22:36.353Z,78.50
2018-08-28T06:25:04.862Z,78.70
2018-08-28T06:27:33.281Z,78.50
2018-08-28T06:30:01.734Z,78.30
2018-08-28T06:32:30.169Z,77.70
2018-08-28T06:34:58.625Z,76.10
2018-08-28T06:37:27.056Z,75.40
2018-08-28T06:39:55.554Z,72.40
2018-08-28T06:42:23.991Z,70.90
2018-08-28T06:44:52.469Z,71.30
2018-08-28T06:47:20.897Z,70.40
2018-08-28T06:49:49.370Z,69.90
2018-08-28T06:52:17.828Z,66.80
2018-08-28T06:54:46.242Z,65.90
2018-08-28T06:57:14.709Z,64.80
2018-08-28T06:59:43.200Z,65.10
2018-08-28T07:02:11.694Z,65.50
2018-08-28T07:04:40.294Z,65.60
2018-08-28T07:07:09.325Z,65.90
2018-08-28T07:09:37.746Z,68.40
2018-08-28T07:12:06.246Z,69.50
2018-08-28T07:14:34.659Z,68.30
2018-08-28T07:17:03.172Z,65.20
2018-08-28T07:19:31.581Z,62.30
2018-08-28T07:22:00.039Z,60.80
2018-08-28T07:24:28.483Z,60.00
2018-08-28T07:26:56.932Z,60.00
2018-08-28T07:29:25.392Z,61.40
2018-08-28T07:31:53.938Z,59.00
2018-08-28T07:34:22.312Z,59.50
2018-08-28T07:36:50.793Z,59.80
2018-08-28T07:39:19.265Z,59.00
2018-08-28T07:41:47.721Z,57.00
2018-08-28T07:44:16.145Z,57.00
2018-08-28T07:46:44.609Z,57.20
2018-08-28T07:49:13.229Z,57.20
2018-08-28T07:51:41.729Z,57.40
2018-08-28T07:54:10.160Z,55.60
2018-08-28T07:56:38.659Z,55.90
2018-08-28T07:59:07.089Z,58.10
2018-08-28T08:01:35.636Z,58.20
2018-08-28T08:04:04.031Z,59.30
2018-08-28T08:06:32.460Z,58.70
2018-08-28T08:09:00.874Z,56.10
2018-08-28T08:11:29.309Z,55.70
2018-08-28T08:13:57.892Z,56.40
2018-08-28T08:16:26.337Z,56.40
2018-08-28T08:18:54.789Z,54.80
2018-08-28T08:21:23.265Z,55.50
2018-08-28T08:23:51.677Z,55.20
2018-08-28T08:26:20.108Z,55.00
2018-08-28T08:28:48.525Z,53.80
2018-08-28T08:31:16.971Z,53.50
2018-08-28T08:33:45.451Z,53.30
2018-08-28T08:36:13.882Z,53.10
2018-08-28T08:38:42.357Z,55.00
2018-08-28T08:41:10.797Z,54.90
2018-08-28T08:43:39.248Z,53.60
2018-08-28T08:46:07.759Z,52.40
2018-08-28T08:48:36.208Z,52.10
2018-08-28T08:51:04.667Z,50.10
2018-08-28T08:53:33.121Z,50.70
2018-08-28T08:56:01.556Z,50.10
2018-08-28T08:58:30.045Z,49.90
2018-08-28T09:00:58.652Z,50.10
2018-08-28T09:03:27.130Z,51.20
2018-08-28T09:05:55.585Z,51.30
2018-08-28T09:08:24.061Z,51.90
2018-08-28T09:10:52.531Z,49.60
2018-08-28T09:13:21.139Z,49.00
2018-08-28T09:15:49.583Z,50.00
2018-08-28T09:18:18.093Z,50.60
2018-08-28T09:20:46.528Z,49.60
2018-08-28T09:23:14.990Z,51.20
2018-08-28T09:25:43.428Z,53.00
2018-08-28T09:28:11.887Z,50.50
2018-08-28T09:30:40.334Z,50.60
2018-08-28T09:33:08.850Z,49.80
2018-08-28T09:35:37.270Z,48.80
2018-08-28T09:38:05.881Z,48.70
2018-08-28T09:40:34.317Z,48.90
2018-08-28T09:43:02.760Z,48.80
2018-08-28T09:45:31.187Z,48.50
2018-08-28T09:47:59.716Z,49.60
2018-08-28T09:50:28.158Z,49.90
2018-08-28T09:52:56.774Z,49.90
2018-08-28T09:55:25.213Z,48.80
2018-08-28T09:57:53.685Z,49.30
2018-08-28T10:00:27.146Z,50.20
2018-08-28T10:02:56.316Z,49.90
2018-08-28T10:05:24.918Z,49.00
2018-08-28T10:07:53.383Z,48.20
2018-08-28T10:10:21.821Z,47.80
2018-08-28T10:12:50.288Z,48.40
2018-08-28T10:15:18.709Z,50.10
2018-08-28T10:17:47.178Z,49.30
2018-08-28T10:20:15.638Z,51.50
2018-08-28T10:22:44.125Z,51.20
2018-08-28T10:25:12.532Z,50.70
2018-08-28T10:27:41.006Z,50.10
2018-08-28T10:30:09.457Z,51.30
2018-08-28T10:32:37.905Z,51.90
2018-08-28T10:35:06.434Z,51.50
2018-08-28T10:37:34.871Z,51.80
2018-08-28T10:40:03.378Z,52.90
2018-08-28T10:42:31.822Z,51.90
2018-08-28T10:45:00.345Z,50.90
2018-08-28T10:47:28.762Z,50.60
2018-08-28T10:49:57.274Z,52.40
2018-08-28T10:52:25.738Z,52.40
2018-08-28T10:54:54.191Z,54.80
2018-08-28T10:57:22.653Z,55.00
2018-08-28T10:59:51.568Z,57.00
2018-08-28T11:02:20.320Z,58.20
2018-08-28T11:04:48.798Z,58.70
2018-08-28T11:07:17.229Z,59.10
2018-08-28T11:09:45.702Z,59.20
2018-08-28T11:12:14.137Z,59.80
2018-08-28T11:14:42.585Z,60.20
2018-08-28T11:17:11.057Z,60.20
2018-08-28T11:19:39.560Z,60.40
2018-08-28T11:22:08.032Z,61.60
2018-08-28T11:24:36.490Z,61.10
2018-08-28T11:27:04.938Z,62.30
2018-08-28T11:29:33.422Z,62.30
2018-08-28T11:32:01.897Z,63.20
2018-08-28T11:34:30.346Z,62.70
2018-08-28T11:36:58.889Z,62.60
2018-08-28T11:39:27.362Z,62.50
2018-08-28T11:41:55.802Z,63.40
2018-08-28T11:44:24.263Z,63.50
2018-08-28T11:46:52.693Z,63.20
2018-08-28T11:49:21.140Z,63.50
2018-08-28T11:51:49.621Z,63.50
2018-08-28T11:54:18.030Z,64.20
2018-08-28T11:56:46.504Z,63.80
2018-08-28T11:59:14.919Z,63.10
2018-08-28T12:01:43.366Z,63.40
2018-08-28T12:04:11.781Z,64.00
2018-08-28T12:06:40.242Z,64.10
2018-08-28T12:09:09.634Z,64.40
2018-08-28T12:11:38.079Z,64.80
2018-08-28T12:14:06.597Z,64.80
2018-08-28T12:16:35.046Z,63.50
2018-08-28T12:19:03.485Z,63.90
2018-08-28T12:21:31.929Z,64.70
2018-08-28T12:24:00.377Z,64.70
2018-08-28T12:26:28.831Z,65.50
2018-08-28T12:28:57.248Z,65.50
2018-08-28T12:31:25.732Z,64.50
2018-08-28T12:33:54.149Z,64.50
2018-08-28T12:36:22.625Z,64.30
2018-08-28T12:38:51.045Z,64.40
2018-08-28T12:41:19.521Z,64.50
2018-08-28T12:43:48.059Z,64.70
2018-08-28T12:46:16.541Z,65.10
2018-08-28T12:48:44.984Z,65.30
2018-08-28T12:51:13.526Z,65.40
2018-08-28T12:53:41.918Z,65.20
2018-08-28T12:56:10.402Z,64.70
2018-08-28T12:58:38.919Z,64.60
2018-08-28T13:01:07.426Z,64.70
2018-08-28T13:03:35.841Z,64.60
2018-08-28T13:06:04.355Z,64.10
2018-08-28T13:08:32.776Z,63.50
2018-08-28T13:11:01.275Z,63.80
2018-08-28T13:13:29.721Z,64.10
2018-08-28T13:15:58.216Z,64.00
2018-08-28T13:18:26.660Z,64.60
2018-08-28T13:20:55.221Z,64.50
2018-08-28T13:23:23.640Z,65.10
2018-08-28T13:25:52.141Z,64.80
2018-08-28T13:28:20.530Z,65.50
2018-08-28T13:30:48.981Z,65.70
2018-08-28T13:33:17.405Z,65.70
2018-08-28T13:35:45.852Z,66.50
2018-08-28T13:38:14.347Z,65.80
2018-08-28T13:40:42.874Z,65.30
2018-08-28T13:43:11.269Z,65.10
2018-08-28T13:45:39.701Z,64.80
2018-08-28T13:48:08.201Z,65.20
2018-08-28T13:50:36.626Z,65.40
2018-08-28T13:53:05.353Z,65.50
2018-08-28T13:55:33.826Z,65.90
2018-08-28T13:58:02.310Z,65.50
2018-08-28T14:00:30.861Z,65.30
2018-08-28T14:02:59.301Z,64.90
2018-08-28T14:05:27.755Z,64.70
2018-08-28T14:07:56.208Z,64.50
2018-08-28T14:10:24.621Z,64.30
2018-08-28T14:12:53.065Z,64.30
2018-08-28T14:15:21.685Z,64.80
2018-08-28T14:17:50.149Z,64.60
2018-08-28T14:20:18.542Z,64.40
2018-08-28T14:22:47.046Z,64.80
2018-08-28T14:25:15.503Z,65.60
2018-08-28T14:27:48.713Z,65.80
2018-08-28T14:30:17.129Z,65.90
2018-08-28T14:32:45.633Z,66.00
2018-08-28T14:35:14.044Z,66.10
2018-08-28T14:37:42.554Z,66.00
2018-08-28T14:40:10.997Z,66.00
2018-08-28T14:42:39.525Z,66.50
2018-08-28T14:45:08.053Z,66.30
2018-08-28T14:47:36.545Z,66.00
2018-08-28T14:50:05.404Z,66.00
2018-08-28T14:52:33.806Z,65.80
2018-08-28T14:55:02.297Z,65.80
2018-08-28T14:57:30.802Z,66.60
2018-08-28T14:59:59.225Z,66.60
2018-08-28T15:02:27.697Z,66.80
2018-08-28T15:04:56.184Z,66.60
2018-08-28T15:07:24.690Z,66.70
2018-08-28T15:09:53.113Z,66.70
2018-08-28T15:12:21.567Z,66.60
2018-08-28T15:14:50.008Z,66.20
2018-08-28T15:17:18.449Z,66.20
2018-08-28T15:19:46.874Z,66.30
2018-08-28T15:22:15.284Z,66.30
2018-08-28T15:24:43.737Z,66.50
2018-08-28T15:27:12.306Z,66.90
2018-08-28T15:29:40.700Z,67.10
2018-08-28T15:32:09.137Z,67.30
2018-08-28T15:34:37.612Z,67.80
2018-08-28T15:37:06.026Z,67.70
2018-08-28T15:39:34.454Z,67.40
2018-08-28T15:42:02.850Z,67.40
2018-08-28T15:44:31.320Z,67.40
2018-08-28T15:46:59.738Z,67.40
2018-08-28T15:49:28.197Z,67.70
2018-08-28T15:51:56.683Z,67.70
2018-08-28T15:54:25.269Z,68.10
2018-08-28T15:56:53.724Z,68.10
2018-08-28T15:59:22.330Z,68.30
2018-08-28T16:01:50.776Z,68.10
2018-08-28T16:04:19.784Z,68.30
2018-08-28T16:06:49.546Z,67.40
2018-08-28T16:09:17.999Z,67.10
2018-08-28T16:11:47.024Z,67.10
2018-08-28T16:14:15.720Z,67.20
2018-08-28T16:16:45.338Z,67.20
2018-08-28T16:19:13.949Z,67.40
2018-08-28T16:22:00.212Z,67.30
2018-08-28T16:24:28.700Z,67.40
2018-08-28T16:26:57.143Z,67.30
2018-08-28T16:29:25.616Z,67.50
2018-08-28T16:31:54.047Z,67.60
2018-08-28T16:34:22.545Z,67.60
2018-08-28T16:36:51.005Z,67.50
2018-08-28T16:39:19.484Z,67.40
2018-08-28T16:41:48.025Z,68.00
2018-08-28T16:46:44.607Z,67.80
2018-08-28T16:49:13.068Z,68.00
2018-08-28T16:51:41.497Z,68.10
2018-08-28T16:54:09.973Z,68.00
2018-08-28T16:56:38.430Z,68.20
2018-08-28T16:59:06.879Z,68.10
2018-08-28T17:01:35.401Z,68.10
2018-08-28T17:04:03.838Z,68.10
2018-08-28T17:06:32.265Z,68.40
2018-08-28T17:09:00.728Z,68.60
2018-08-28T17:11:29.351Z,68.80
2018-08-28T17:13:57.852Z,69.00
2018-08-28T17:16:26.283Z,69.20
2018-08-28T17:18:54.709Z,69.60
2018-08-28T17:21:23.193Z,69.90
2018-08-28T17:23:51.634Z,69.90
2018-08-28T17:26:20.084Z,70.00
2018-08-28T17:28:48.625Z,70.50
2018-08-28T17:31:17.064Z,70.80
2018-08-28T17:33:45.484Z,70.90
2018-08-28T17:36:13.961Z,71.40
2018-08-28T17:38:42.411Z,71.10
2018-08-28T17:41:10.857Z,71.50
2018-08-28T17:43:39.323Z,71.60
2018-08-28T17:46:07.796Z,71.70
2018-08-28T17:48:36.275Z,72.10
2018-08-28T17:51:05.089Z,72.10
2018-08-28T17:53:33.505Z,72.10
2018-08-28T17:56:01.946Z,72.10
2018-08-28T17:58:30.434Z,72.60
2018-08-28T18:00:58.906Z,72.80
2018-08-28T18:03:27.373Z,73.00
2018-08-28T18:05:55.909Z,73.00
2018-08-28T18:08:24.330Z,73.10
2018-08-28T18:10:52.789Z,73.40
2018-08-28T18:13:21.218Z,73.70
2018-08-28T18:15:49.673Z,73.90
2018-08-28T18:18:18.124Z,73.90
2018-08-28T18:20:46.594Z,74.60
2018-08-28T18:23:15.008Z,74.70
2018-08-28T18:25:43.454Z,75.20
2018-08-28T18:28:11.848Z,75.60
2018-08-28T18:30:40.332Z,75.80
2018-08-28T18:33:08.899Z,76.20
2018-08-28T18:35:37.350Z,76.50
2018-08-28T18:38:05.796Z,76.50
2018-08-28T18:40:34.240Z,76.80
2018-08-28T18:43:02.684Z,77.00
2018-08-28T18:45:31.116Z,77.40
2018-08-28T18:47:59.583Z,77.50
2018-08-28T18:50:28.034Z,77.70
2018-08-28T18:52:56.461Z,78.00
2018-08-28T18:55:24.973Z,78.00
2018-08-28T18:57:53.458Z,78.20
2018-08-28T19:00:22.093Z,78.40
2018-08-28T19:02:50.660Z,78.40
2018-08-28T19:05:19.022Z,78.60
2018-08-28T19:07:47.676Z,78.80
2018-08-28T19:10:16.122Z,78.70
2018-08-28T19:12:44.592Z,78.60
2018-08-28T19:15:13.069Z,78.70
2018-08-28T19:17:41.609Z,78.90
2018-08-28T19:20:10.096Z,79.10
2018-08-28T19:22:38.565Z,79.40
2018-08-28T19:25:07.053Z,79.40
2018-08-28T19:27:35.489Z,79.60
2018-08-28T19:30:04.044Z,79.60
2018-08-28T19:32:32.501Z,79.60
2018-08-28T19:35:00.946Z,79.60
2018-08-28T19:37:29.432Z,79.40
2018-08-28T19:39:58.219Z,79.40
2018-08-28T19:42:26.666Z,79.80
2018-08-28T19:44:55.090Z,79.90
2018-08-28T19:47:23.546Z,80.10
2018-08-28T19:49:52.027Z,80.10
2018-08-28T19:52:20.458Z,80.20
2018-08-28T19:54:48.888Z,80.40
2018-08-28T19:57:17.371Z,80.40
2018-08-28T19:59:45.797Z,80.60
2018-08-28T20:02:14.275Z,80.90
2018-08-28T20:04:42.716Z,80.90
2018-08-28T20:07:11.177Z,80.90
2018-08-28T20:09:39.589Z,81.20
2018-08-28T20:12:08.077Z,81.30
2018-08-28T20:14:36.530Z,81.40
2018-08-28T20:17:05.297Z,81.40
2018-08-28T20:22:01.926Z,81.60
2018-08-28T20:24:30.369Z,81.60
2018-08-28T20:26:58.849Z,81.80
2018-08-28T20:29:29.825Z,81.70
2018-08-28T20:31:58.379Z,81.90
2018-08-28T20:34:26.789Z,82.00
2018-08-28T20:36:55.268Z,82.40
2018-08-28T20:39:23.717Z,82.30
2018-08-28T20:41:52.205Z,82.50
2018-08-28T20:46:48.785Z,82.60
2018-08-28T20:49:17.256Z,82.70
2018-08-28T20:51:45.682Z,82.60
2018-08-28T20:54:14.154Z,82.80
2018-08-28T20:56:42.773Z,82.90
2018-08-28T20:59:11.221Z,82.90
2018-08-28T21:01:39.836Z,83.10
2018-08-28T21:04:08.665Z,83.20
2018-08-28T21:06:37.247Z,83.30
2018-08-28T21:09:06.934Z,83.30
2018-08-28T21:11:35.502Z,83.20
2018-08-28T21:14:03.960Z,83.30
2018-08-28T21:16:32.397Z,83.40
2018-08-28T21:19:00.844Z,83.50
2018-08-28T21:21:29.278Z,83.40
2018-08-28T21:23:57.856Z,83.50
2018-08-28T21:26:26.321Z,83.70
2018-08-28T21:28:54.837Z,83.50
2018-08-28T21:31:23.422Z,83.70
2018-08-28T21:33:51.986Z,84.00
2018-08-28T21:36:20.493Z,84.00
2018-08-28T21:38:48.953Z,84.20
2018-08-28T21:41:17.370Z,84.20
2018-08-28T21:43:45.874Z,84.20
2018-08-28T21:46:14.301Z,84.20
2018-08-28T21:48:42.762Z,84.40
2018-08-28T21:51:11.173Z,84.30
2018-08-28T21:53:39.616Z,84.30
2018-08-28T21:56:08.048Z,84.40
2018-08-28T21:58:36.526Z,84.50
2018-08-28T22:01:12.018Z,84.60
2018-08-28T22:03:41.720Z,84.60
2018-08-28T22:06:15.629Z,84.70
2018-08-28T22:08:44.221Z,84.50
2018-08-28T22:16:09.320Z,84.30
2018-08-28T22:18:37.828Z,84.50
2018-08-28T22:21:06.260Z,84.60
2018-08-28T22:23:34.711Z,84.70
2018-08-28T22:26:03.105Z,84.90
2018-08-28T22:28:31.601Z,84.90
2018-08-28T22:31:00.005Z,84.90
2018-08-28T22:33:28.401Z,85.10
2018-08-28T22:35:56.933Z,85.10
2018-08-28T22:38:25.396Z,85.10
2018-08-28T22:40:53.808Z,85.20
2018-08-28T22:43:23.394Z,85.20
2018-08-28T22:45:52.080Z,85.30
2018-08-28T22:48:20.485Z,85.40
2018-08-28T22:50:48.937Z,85.40
2018-08-28T22:53:17.313Z,85.30
2018-08-28T22:55:45.704Z,85.30
2018-08-28T22:58:14.107Z,85.40
2018-08-28T23:00:42.521Z,85.50
2018-08-28T23:03:10.936Z,85.70
2018-08-28T23:05:39.353Z,85.50
2018-08-28T23:08:07.831Z,85.60
2018-08-28T23:10:36.259Z,85.50
2018-08-28T23:13:04.654Z,85.70
2018-08-28T23:15:33.043Z,85.80
2018-08-28T23:18:01.438Z,85.80
2018-08-28T23:20:29.824Z,85.80
2018-08-28T23:22:58.208Z,85.80
2018-08-28T23:25:26.607Z,85.80
2018-08-28T23:27:54.984Z,85.70
2018-08-28T23:30:23.381Z,85.80
2018-08-28T23:32:52.018Z,85.70
2018-08-28T23:35:20.421Z,85.60
2018-08-28T23:37:48.813Z,85.60
2018-08-28T23:40:17.215Z,85.90
2018-08-28T23:42:45.593Z,85.90
2018-08-28T23:45:14.021Z,86.10
2018-08-28T23:47:42.436Z,85.90
2018-08-28T23:50:10.913Z,86.10
2018-08-28T23:52:39.335Z,86.00
2018-08-28T23:55:07.817Z,85.80
2018-08-28T23:57:36.411Z,85.80
